createdAt,value
2023-03-13T00:00:01.250Z,81.60
2023-03-13T00:02:31.141Z,81.45
2023-03-13T00:05:05.466Z,80.38
2023-03-13T00:07:37.205Z,80.81
2023-03-13T00:10:07.960Z,80.44
2023-03-13T00:12:37.094Z,80.54
2023-03-13T00:15:06.665Z,80.03
2023-03-13T00:17:40.831Z,79.91
2023-03-13T00:20:11.602Z,79.28
2023-03-13T00:22:42.694Z,79.71
2023-03-13T00:25:12.208Z,79.63
2023-03-13T00:27:41.733Z,79.48
2023-03-13T00:30:16.604Z,79.10
2023-03-13T00:32:48.171Z,79.19
2023-03-13T00:35:18.053Z,79.30
2023-03-13T00:37:49.148Z,79.13
2023-03-13T00:40:20.444Z,79.16
2023-03-13T00:42:49.637Z,79.15
2023-03-13T00:45:19.384Z,79.51
2023-03-13T00:47:53.511Z,79.35
2023-03-13T00:50:22.714Z,79.44
2023-03-13T00:52:59.207Z,79.65
2023-03-13T00:55:28.383Z,80.02
2023-03-13T00:57:57.514Z,80.39
2023-03-13T01:03:07.065Z,80.12
2023-03-13T01:05:36.319Z,80.08
2023-03-13T01:08:12.675Z,79.99
2023-03-13T01:10:41.842Z,80.04
2023-03-13T01:13:10.999Z,80.00
2023-03-13T01:15:40.240Z,79.96
2023-03-13T01:18:09.437Z,79.70
2023-03-13T01:20:48.831Z,79.43
2023-03-13T01:23:20.211Z,79.86
2023-03-13T01:25:55.431Z,79.81
2023-03-13T01:28:30.820Z,79.53
2023-03-13T01:31:01.159Z,79.87
2023-03-13T01:33:30.350Z,79.85
2023-03-13T01:36:04.310Z,80.16
2023-03-13T01:38:40.601Z,80.46
2023-03-13T01:41:12.995Z,80.97
2023-03-13T01:43:43.641Z,81.09
2023-03-13T01:46:18.180Z,81.29
2023-03-13T01:49:20.305Z,81.49
2023-03-13T01:52:01.569Z,81.94
2023-03-13T01:54:39.206Z,82.09
2023-03-13T01:57:14.874Z,82.31
2023-03-13T01:59:50.112Z,83.29
2023-03-13T02:02:31.126Z,83.58
2023-03-13T02:05:08.688Z,83.91
2023-03-13T02:07:42.543Z,83.63
2023-03-13T02:10:17.667Z,84.49
2023-03-13T02:12:47.749Z,84.70
2023-03-13T02:15:20.681Z,84.39
2023-03-13T02:17:55.920Z,84.32
2023-03-13T02:20:26.716Z,85.36
2023-03-13T02:23:09.931Z,84.75
2023-03-13T02:25:46.088Z,85.39
2023-03-13T02:28:21.514Z,85.06
2023-03-13T02:30:53.849Z,85.13
2023-03-13T02:33:24.734Z,85.16
2023-03-13T02:35:56.300Z,85.91
2023-03-13T02:38:31.334Z,85.28
2023-03-13T02:41:08.290Z,85.42
2023-03-13T02:43:43.603Z,85.44
2023-03-13T02:46:16.002Z,85.42
2023-03-13T02:48:50.520Z,85.54
2023-03-13T02:51:28.201Z,85.47
2023-03-13T02:54:02.252Z,85.82
2023-03-13T02:56:38.260Z,86.49
2023-03-13T02:59:08.916Z,86.33
2023-03-13T03:01:41.515Z,86.26
2023-03-13T03:04:12.001Z,87.01
2023-03-13T03:06:46.940Z,87.00
2023-03-13T03:09:16.226Z,87.32
2023-03-13T03:11:47.627Z,87.84
2023-03-13T03:14:18.956Z,87.68
2023-03-13T03:16:49.848Z,87.51
2023-03-13T03:19:24.146Z,87.54
2023-03-13T03:21:53.398Z,87.64
2023-03-13T03:24:22.678Z,87.56
2023-03-13T03:26:54.317Z,87.68
2023-03-13T03:29:29.638Z,87.90
2023-03-13T03:32:00.084Z,88.00
2023-03-13T03:34:35.530Z,87.70
2023-03-13T03:37:10.002Z,87.53
2023-03-13T03:39:42.002Z,87.71
2023-03-13T03:42:18.545Z,88.09
2023-03-13T03:44:48.591Z,88.07
2023-03-13T03:47:18.098Z,87.69
2023-03-13T03:49:49.907Z,87.71
2023-03-13T03:52:19.623Z,87.90
2023-03-13T03:54:48.932Z,87.74
2023-03-13T03:57:26.657Z,87.95
2023-03-13T03:59:56.209Z,87.43
2023-03-13T04:02:25.390Z,88.00
2023-03-13T04:04:59.901Z,87.81
2023-03-13T04:07:34.818Z,87.69
2023-03-13T04:10:04.135Z,87.90
2023-03-13T04:12:41.744Z,88.13
2023-03-13T04:15:12.630Z,87.67
2023-03-13T04:17:42.622Z,87.37
2023-03-13T04:22:50.762Z,87.18
2023-03-13T04:25:20.508Z,87.16
2023-03-13T04:28:00.545Z,87.01
2023-03-13T04:30:37.086Z,87.02
2023-03-13T04:33:21.372Z,86.35
2023-03-13T04:36:07.267Z,86.00
2023-03-13T04:39:20.306Z,85.73
2023-03-13T04:42:09.778Z,85.50
2023-03-13T04:44:59.693Z,85.45
2023-03-13T04:47:44.617Z,85.53
2023-03-13T04:50:20.497Z,85.27
2023-03-13T04:53:08.386Z,84.79
2023-03-13T04:56:02.942Z,84.96
2023-03-13T04:58:47.007Z,84.70
2023-03-13T05:01:37.316Z,84.45
2023-03-13T05:04:34.468Z,83.39
2023-03-13T05:07:22.367Z,82.65
2023-03-13T05:10:13.697Z,81.74
2023-03-13T05:12:45.506Z,81.05
2023-03-13T05:15:37.310Z,81.69
2023-03-13T05:18:26.973Z,81.72
2023-03-13T05:21:16.389Z,81.72
2023-03-13T05:24:22.970Z,81.64
2023-03-13T05:27:04.340Z,81.51
2023-03-13T05:33:03.979Z,80.79
2023-03-13T05:36:16.389Z,80.52
2023-03-13T05:38:56.998Z,80.20
2023-03-13T05:41:52.038Z,78.89
2023-03-13T05:44:29.961Z,78.75
2023-03-13T05:46:59.156Z,78.75
2023-03-13T05:50:03.860Z,77.63
2023-03-13T05:53:05.674Z,77.24
2023-03-13T05:55:42.572Z,77.27
2023-03-13T05:58:38.575Z,76.15
2023-03-13T06:01:16.465Z,75.82
2023-03-13T06:03:58.097Z,74.63
2023-03-13T06:06:28.860Z,74.80
2023-03-13T06:09:06.574Z,74.31
2023-03-13T06:11:41.146Z,74.31
2023-03-13T06:14:16.693Z,74.15
2023-03-13T06:17:06.463Z,73.94
2023-03-13T06:22:15.771Z,73.87
2023-03-13T06:24:49.146Z,73.29
2023-03-13T06:27:19.546Z,73.08
2023-03-13T06:29:48.714Z,72.45
2023-03-13T06:32:18.051Z,72.80
2023-03-13T06:34:47.248Z,72.00
2023-03-13T06:37:16.578Z,71.60
2023-03-13T06:39:47.906Z,71.06
2023-03-13T06:42:22.208Z,71.23
2023-03-13T06:44:51.479Z,70.01
2023-03-13T06:47:20.681Z,69.93
2023-03-13T06:49:50.548Z,68.81
2023-03-13T06:52:20.684Z,67.71
2023-03-13T06:54:52.691Z,67.40
2023-03-13T06:57:22.025Z,66.07
2023-03-13T06:59:51.322Z,65.77
2023-03-13T07:02:20.542Z,66.27
2023-03-13T07:04:49.569Z,66.12
2023-03-13T07:07:31.044Z,65.95
2023-03-13T07:10:08.300Z,66.04
2023-03-13T07:12:37.864Z,66.18
2023-03-13T07:17:48.742Z,65.57
2023-03-13T07:20:18.251Z,65.60
2023-03-13T07:22:58.897Z,64.63
2023-03-13T07:25:30.148Z,63.26
2023-03-13T07:28:00.643Z,63.01
2023-03-13T07:30:30.190Z,62.51
2023-03-13T07:33:00.633Z,62.06
2023-03-13T07:35:29.750Z,60.31
2023-03-13T07:37:58.883Z,59.42
2023-03-13T07:40:29.990Z,58.45
2023-03-13T07:42:59.283Z,59.56
2023-03-13T07:45:28.504Z,58.85
2023-03-13T07:47:57.758Z,57.67
2023-03-13T07:50:27.235Z,57.07
2023-03-13T07:52:56.461Z,57.70
2023-03-13T07:55:25.774Z,57.36
2023-03-13T07:57:56.952Z,57.37
2023-03-13T08:00:31.135Z,57.80
2023-03-13T08:03:00.322Z,57.51
2023-03-13T08:05:34.580Z,57.04
2023-03-13T08:08:03.729Z,56.85
2023-03-13T08:10:33.104Z,56.83
2023-03-13T08:13:04.564Z,56.87
2023-03-13T08:15:33.889Z,56.48
2023-03-13T08:18:03.044Z,56.14
2023-03-13T08:20:32.698Z,55.40
2023-03-13T08:23:01.891Z,55.83
2023-03-13T08:25:37.345Z,55.10
2023-03-13T08:28:08.637Z,56.51
2023-03-13T08:30:48.269Z,56.66
2023-03-13T08:33:18.699Z,56.50
2023-03-13T08:35:48.212Z,55.62
2023-03-13T08:38:18.125Z,56.56
2023-03-13T08:40:47.215Z,56.50
2023-03-13T08:43:18.632Z,56.31
2023-03-13T08:45:47.756Z,56.31
2023-03-13T08:48:16.933Z,56.27
2023-03-13T08:50:46.162Z,56.41
2023-03-13T08:53:15.315Z,57.51
2023-03-13T08:55:44.494Z,58.06
2023-03-13T08:58:14.742Z,58.74
2023-03-13T09:00:45.895Z,59.60
2023-03-13T09:03:15.173Z,59.65
2023-03-13T09:05:55.641Z,59.86
2023-03-13T09:08:25.855Z,61.20
2023-03-13T09:10:58.804Z,61.25
2023-03-13T09:13:35.039Z,61.16
2023-03-13T09:16:08.391Z,60.78
2023-03-13T09:18:38.629Z,60.96
2023-03-13T09:21:10.525Z,59.82
2023-03-13T09:23:39.952Z,59.30
2023-03-13T09:26:09.041Z,58.92
2023-03-13T09:28:38.486Z,59.15
2023-03-13T09:31:15.371Z,58.56
2023-03-13T09:33:45.967Z,59.09
2023-03-13T09:36:15.188Z,59.23
2023-03-13T09:38:44.589Z,59.36
2023-03-13T09:41:27.547Z,59.25
2023-03-13T09:44:04.210Z,58.73
2023-03-13T09:46:42.544Z,59.98
2023-03-13T09:49:19.241Z,59.35
2023-03-13T09:51:54.358Z,59.42
2023-03-13T09:54:29.015Z,59.67
2023-03-13T09:57:01.705Z,59.40
2023-03-13T09:59:38.108Z,59.58
2023-03-13T10:02:23.753Z,58.79
2023-03-13T10:05:07.747Z,59.50
2023-03-13T10:07:37.950Z,59.22
2023-03-13T10:10:13.995Z,59.79
2023-03-13T10:12:47.196Z,58.61
2023-03-13T10:15:42.266Z,58.42
2023-03-13T10:18:22.258Z,58.26
2023-03-13T10:20:53.156Z,59.17
2023-03-13T10:23:29.231Z,58.58
2023-03-13T10:25:58.504Z,59.58
2023-03-13T10:28:27.906Z,59.64
2023-03-13T10:31:05.040Z,58.85
2023-03-13T10:33:38.778Z,59.18
2023-03-13T10:36:11.837Z,59.23
2023-03-13T10:38:52.159Z,60.45
2023-03-13T10:41:31.781Z,61.46
2023-03-13T10:44:03.241Z,61.78
2023-03-13T10:46:43.236Z,62.34
2023-03-13T10:49:19.459Z,62.57
2023-03-13T10:51:51.209Z,62.74
2023-03-13T10:54:25.648Z,62.61
2023-03-13T10:57:10.833Z,62.65
2023-03-13T10:59:45.525Z,62.88
2023-03-13T11:02:35.080Z,62.91
2023-03-13T11:05:44.067Z,63.11
2023-03-13T11:08:22.158Z,62.77
2023-03-13T11:10:57.260Z,62.41
2023-03-13T11:13:38.182Z,62.60
2023-03-13T11:16:19.612Z,61.92
2023-03-13T11:19:27.945Z,62.22
2023-03-13T11:22:10.458Z,63.74
2023-03-13T11:24:46.687Z,65.24
2023-03-13T11:27:28.416Z,65.77
2023-03-13T11:30:08.832Z,65.98
2023-03-13T11:32:45.177Z,66.39
2023-03-13T11:35:33.500Z,66.60
2023-03-13T11:38:10.292Z,66.57
2023-03-13T11:40:47.080Z,65.82
2023-03-13T11:43:40.765Z,65.51
2023-03-13T11:46:24.951Z,65.31
2023-03-13T11:49:25.545Z,65.09
2023-03-13T11:52:16.881Z,64.78
2023-03-13T11:55:25.040Z,65.25
2023-03-13T11:58:02.935Z,64.83
2023-03-13T12:00:38.139Z,65.27
2023-03-13T12:03:19.460Z,65.40
2023-03-13T12:05:54.225Z,65.64
2023-03-13T12:08:39.084Z,64.78
2023-03-13T12:11:18.831Z,64.69
2023-03-13T12:13:59.946Z,62.96
2023-03-13T12:16:43.258Z,63.61
2023-03-13T12:19:17.091Z,63.41
2023-03-13T12:21:52.745Z,64.90
2023-03-13T12:24:34.733Z,68.00
2023-03-13T12:27:12.000Z,71.70
2023-03-13T12:29:50.539Z,73.96
2023-03-13T12:32:26.636Z,74.26
2023-03-13T12:35:08.361Z,75.88
2023-03-13T12:37:49.323Z,75.62
2023-03-13T12:40:28.108Z,75.86
2023-03-13T12:43:04.927Z,75.34
2023-03-13T12:53:24.651Z,73.32
2023-03-13T12:56:07.638Z,73.27
2023-03-13T12:58:50.864Z,73.35
2023-03-13T13:01:32.123Z,73.92
2023-03-13T13:04:08.897Z,74.12
2023-03-13T13:07:03.962Z,72.97
2023-03-13T13:09:43.949Z,72.12
2023-03-13T13:12:22.739Z,71.64
2023-03-13T13:15:22.601Z,71.23
2023-03-13T13:18:00.326Z,69.40
2023-03-13T13:20:42.156Z,69.57
2023-03-13T13:23:41.751Z,68.68
2023-03-13T13:26:50.074Z,66.92
2023-03-13T13:29:57.839Z,66.67
2023-03-13T13:32:45.736Z,65.79
2023-03-13T13:35:35.940Z,64.75
2023-03-13T13:38:36.279Z,64.03
2023-03-13T13:41:25.413Z,63.33
2023-03-13T13:44:37.099Z,61.54
2023-03-13T13:47:06.471Z,60.54
2023-03-13T13:49:54.196Z,60.44
2023-03-13T13:52:41.965Z,60.91
2023-03-13T13:55:46.244Z,60.64
2023-03-13T13:58:21.896Z,60.48
2023-03-13T14:00:55.998Z,61.32
2023-03-13T14:03:26.767Z,62.05
2023-03-13T14:06:02.173Z,61.23
2023-03-13T14:08:33.132Z,60.47
2023-03-13T14:11:22.454Z,59.46
2023-03-13T14:14:13.216Z,58.74
2023-03-13T14:16:48.747Z,59.14
2023-03-13T14:19:27.241Z,59.71
2023-03-13T14:22:05.327Z,60.20
2023-03-13T14:24:34.918Z,60.68
2023-03-13T14:27:16.283Z,61.06
2023-03-13T14:30:02.204Z,60.89
2023-03-13T14:32:37.650Z,61.32
2023-03-13T14:35:09.444Z,61.54
2023-03-13T14:37:48.675Z,62.28
2023-03-13T14:40:29.317Z,61.59
2023-03-13T14:45:40.480Z,60.74
2023-03-13T14:48:24.787Z,60.67
2023-03-13T14:51:14.666Z,60.00
2023-03-13T14:54:03.521Z,60.27
2023-03-13T14:56:35.812Z,60.17
2023-03-13T14:59:19.519Z,59.97
2023-03-13T15:01:48.800Z,60.16
2023-03-13T15:04:18.084Z,60.03
2023-03-13T15:06:47.396Z,60.29
2023-03-13T15:09:21.441Z,59.67
2023-03-13T15:11:58.986Z,59.54
2023-03-13T15:14:39.539Z,59.35
2023-03-13T15:17:17.690Z,59.60
2023-03-13T15:19:51.388Z,59.20
2023-03-13T15:22:23.644Z,59.95
2023-03-13T15:25:05.724Z,60.17
2023-03-13T15:27:36.208Z,60.94
2023-03-13T15:30:06.827Z,60.75
2023-03-13T15:32:38.628Z,61.33
2023-03-13T15:35:26.717Z,62.35
2023-03-13T15:38:06.346Z,62.03
2023-03-13T15:40:37.356Z,62.24
2023-03-13T15:43:06.717Z,62.83
2023-03-13T15:45:36.271Z,63.44
2023-03-13T15:48:19.231Z,63.44
2023-03-13T15:50:51.377Z,63.77
2023-03-13T15:53:23.807Z,63.93
2023-03-13T15:55:57.700Z,64.83
2023-03-13T15:58:28.181Z,64.67
2023-03-13T16:01:02.453Z,65.40
2023-03-13T16:03:32.420Z,65.39
2023-03-13T16:06:01.658Z,65.65
2023-03-13T16:08:36.790Z,65.63
2023-03-13T16:11:08.553Z,66.08
2023-03-13T16:13:38.081Z,66.37
2023-03-13T16:16:22.225Z,66.94
2023-03-13T16:18:52.493Z,67.15
2023-03-13T16:21:23.954Z,67.54
2023-03-13T16:23:53.461Z,67.63
2023-03-13T16:26:31.313Z,67.96
2023-03-13T16:29:00.991Z,68.24
2023-03-13T16:31:32.767Z,68.42
2023-03-13T16:34:01.954Z,68.52
2023-03-13T16:36:32.909Z,68.67
2023-03-13T16:39:03.395Z,69.04
2023-03-13T16:41:34.620Z,69.55
2023-03-13T16:44:04.306Z,70.17
2023-03-13T16:46:38.119Z,70.75
2023-03-13T16:49:08.088Z,70.59
2023-03-13T16:51:37.363Z,70.86
2023-03-13T16:54:07.158Z,70.66
2023-03-13T16:56:40.378Z,71.59
2023-03-13T16:59:18.634Z,72.02
2023-03-13T17:01:48.758Z,71.97
2023-03-13T17:04:17.904Z,72.05
2023-03-13T17:06:47.439Z,72.71
2023-03-13T17:09:19.019Z,73.04
2023-03-13T17:11:56.286Z,73.47
2023-03-13T17:14:25.429Z,73.41
2023-03-13T17:16:54.584Z,73.50
2023-03-13T17:19:23.783Z,75.13
2023-03-13T17:21:53.349Z,73.96
2023-03-13T17:24:22.509Z,74.52
2023-03-13T17:26:59.008Z,75.01
2023-03-13T17:29:30.274Z,75.15
2023-03-13T17:32:03.792Z,75.29
2023-03-13T17:34:33.733Z,75.43
2023-03-13T17:37:05.669Z,75.41
2023-03-13T17:39:34.455Z,76.06
2023-03-13T17:42:05.093Z,75.37
2023-03-13T17:44:46.394Z,76.37
2023-03-13T17:47:17.613Z,76.55
2023-03-13T17:49:47.078Z,76.50
2023-03-13T17:52:17.827Z,76.59
2023-03-13T17:54:47.527Z,76.93
2023-03-13T17:57:20.360Z,77.41
2023-03-13T17:59:51.460Z,77.55
2023-03-13T18:02:21.957Z,77.58
2023-03-13T18:04:53.193Z,77.64
2023-03-13T18:07:26.784Z,77.89
2023-03-13T18:09:56.383Z,77.96
2023-03-13T18:12:25.519Z,78.01
2023-03-13T18:15:01.691Z,78.59
2023-03-13T18:17:32.673Z,78.87
2023-03-13T18:20:01.850Z,78.59
2023-03-13T18:22:32.205Z,79.47
2023-03-13T18:25:01.364Z,79.54
2023-03-13T18:27:30.628Z,79.81
2023-03-13T18:30:01.870Z,80.22
2023-03-13T18:32:33.242Z,79.90
2023-03-13T18:35:02.441Z,80.35
2023-03-13T18:37:33.073Z,80.61
2023-03-13T18:40:05.082Z,80.31
2023-03-13T18:42:34.531Z,80.65
2023-03-13T18:45:06.764Z,81.15
2023-03-13T18:47:36.058Z,81.13
2023-03-13T18:50:05.347Z,80.82
2023-03-13T18:52:34.590Z,80.98
2023-03-13T18:55:03.685Z,80.82
2023-03-13T18:57:33.041Z,81.67
2023-03-13T19:00:02.713Z,81.71
2023-03-13T19:02:35.377Z,82.27
2023-03-13T19:05:04.679Z,82.22
2023-03-13T19:07:34.227Z,82.16
2023-03-13T19:10:03.397Z,82.89
2023-03-13T19:12:32.526Z,82.81
2023-03-13T19:15:02.049Z,82.70
2023-03-13T19:17:39.961Z,83.49
2023-03-13T19:20:12.762Z,82.92
2023-03-13T19:22:42.140Z,83.23
2023-03-13T19:25:12.518Z,82.81
2023-03-13T19:27:42.237Z,83.03
2023-03-13T19:30:19.488Z,83.71
2023-03-13T19:32:51.780Z,83.16
2023-03-13T19:35:21.376Z,83.34
2023-03-13T19:37:50.501Z,83.50
2023-03-13T19:40:27.490Z,83.94
2023-03-13T19:42:56.762Z,83.33
2023-03-13T19:45:27.291Z,84.05
2023-03-13T19:47:58.535Z,83.95
2023-03-13T19:50:29.393Z,83.93
2023-03-13T19:52:58.792Z,84.40
2023-03-13T19:55:33.296Z,84.08
2023-03-13T19:58:06.319Z,84.02
2023-03-13T20:00:37.012Z,84.17
2023-03-13T20:03:13.276Z,83.92
2023-03-13T20:05:42.392Z,84.29
2023-03-13T20:08:11.887Z,84.95
2023-03-13T20:10:41.070Z,84.81
2023-03-13T20:13:10.057Z,84.65
2023-03-13T20:15:39.242Z,84.54
2023-03-13T20:18:16.770Z,85.41
2023-03-13T20:20:45.978Z,84.91
2023-03-13T20:23:21.200Z,84.58
2023-03-13T20:25:50.791Z,85.05
2023-03-13T20:28:19.938Z,84.98
2023-03-13T20:30:56.237Z,85.49
2023-03-13T20:33:27.352Z,85.28
2023-03-13T20:35:58.980Z,85.36
2023-03-13T20:38:32.103Z,85.70
2023-03-13T20:41:01.358Z,85.35
2023-03-13T20:43:30.937Z,85.51
2023-03-13T20:46:06.656Z,85.08
2023-03-13T20:48:41.159Z,85.40
2023-03-13T20:51:11.090Z,85.06
2023-03-13T20:53:44.136Z,85.00
2023-03-13T20:58:48.296Z,84.52
2023-03-13T21:01:19.529Z,84.39
2023-03-13T21:03:55.992Z,84.57
2023-03-13T21:06:25.193Z,84.92
2023-03-13T21:09:00.808Z,84.84
2023-03-13T21:11:29.988Z,84.45
2023-03-13T21:13:59.120Z,84.60
2023-03-13T21:16:28.398Z,84.75
2023-03-13T21:18:59.569Z,84.74
2023-03-13T21:21:29.221Z,84.65
2023-03-13T21:23:58.470Z,84.58
2023-03-13T21:26:27.914Z,84.42
2023-03-13T21:28:57.082Z,84.60
2023-03-13T21:31:26.699Z,84.34
2023-03-13T21:33:55.870Z,84.64
2023-03-13T21:36:32.118Z,84.64
2023-03-13T21:39:01.547Z,84.52
2023-03-13T21:41:33.005Z,84.46
2023-03-13T21:44:02.175Z,84.71
2023-03-13T21:46:32.687Z,84.44
2023-03-13T21:49:02.887Z,84.89
2023-03-13T21:51:34.123Z,84.58
2023-03-13T21:54:03.314Z,84.70
2023-03-13T21:56:32.351Z,85.08
2023-03-13T21:59:01.547Z,84.71
2023-03-13T22:01:30.720Z,84.82
2023-03-13T22:03:59.950Z,84.86
2023-03-13T22:06:28.948Z,85.17
2023-03-13T22:09:05.138Z,85.33
2023-03-13T22:11:39.376Z,84.96
2023-03-13T22:14:08.532Z,85.19
2023-03-13T22:16:37.735Z,85.24
2023-03-13T22:19:06.846Z,85.37
2023-03-13T22:21:36.052Z,85.37
2023-03-13T22:24:09.046Z,85.77
2023-03-13T22:26:39.550Z,85.43
2023-03-13T22:29:08.587Z,85.36
2023-03-13T22:31:38.007Z,85.24
2023-03-13T22:36:42.487Z,84.95
2023-03-13T22:39:13.545Z,85.34
2023-03-13T22:41:48.995Z,84.98
2023-03-13T22:44:18.715Z,85.02
2023-03-13T22:46:47.724Z,84.78
2023-03-13T22:49:22.003Z,84.45
2023-03-13T22:51:51.087Z,84.67
2023-03-13T22:54:27.317Z,84.62
2023-03-13T22:56:56.498Z,84.73
2023-03-13T22:59:25.662Z,84.58
2023-03-13T23:01:54.855Z,84.55
2023-03-13T23:04:24.037Z,84.70
2023-03-13T23:06:53.251Z,84.92
2023-03-13T23:09:24.406Z,84.54
2023-03-13T23:11:53.631Z,84.66
2023-03-13T23:14:22.740Z,84.01
2023-03-13T23:16:52.245Z,84.10
2023-03-13T23:19:21.619Z,84.05
2023-03-13T23:21:50.683Z,83.77
2023-03-13T23:24:24.897Z,84.11
2023-03-13T23:26:56.398Z,83.32
2023-03-13T23:29:26.037Z,83.31
2023-03-13T23:31:55.108Z,83.30
2023-03-13T23:34:29.663Z,82.83
2023-03-13T23:36:59.996Z,82.57
2023-03-13T23:39:29.320Z,82.44
2023-03-13T23:42:00.742Z,82.02
2023-03-13T23:44:32.228Z,81.54
2023-03-13T23:47:01.359Z,81.01
2023-03-13T23:49:35.551Z,80.37
2023-03-13T23:52:04.854Z,80.37
2023-03-13T23:54:34.054Z,80.56
2023-03-13T23:59:40.424Z,80.05
